IJX weather

Jacksonville Municipal Airport
Jacksonville, Illinois, United States

Public forecast

Using degrees Fahrenheit for public forecast. Weather courtesy of forecast.io.

METAR (pilot weather report)

Retrieved 2019/07/21 08:35 UTC (0 seconds ago):

KIJX 210835Z AUTO 30007KT 10SM CLR 24/20 A2987 RMK AO2 T02440196

TAF (pilot weather forecast)

Closest forecast is Abraham Lincoln Capital Airport, 26.2 nm (48.5 km) E. Retrieved 2019/07/21 06:36 UTC (2 hours ago):

TAF KSPI 210533Z 2106/2206 19005KT P6SM BKN250 FM210900 27005KT P6SM VCSH SCT045 BKN250 FM211000 23007KT P6SM VCSH SCT045 BKN250 FM220000 35005KT P6SM BKN070